Time;durP1;ratioP1;P1;durP2;ratioP2;P2;SDS_P1;SDS_P2;PMS_P1;PMS_P2;Temp;Humidity;BMP_temperature;BMP_pressure;BME280_temperature;BME280_humidity;BME280_pressure;Samples;Min_cycle;Max_cycle;Signal;HPM_P1;HPM_P2
2022/09/07 06:34:39;;;;;;;26.65;24.52;;;30.40;99.90;;;;;;5118929;23;20041;-91
2022/09/07 06:55:07;;;;;;;28.08;25.73;;;32.40;99.90;;;;;;5112710;23;20044;-92
2022/09/07 18:31:10;;;;;;;23.88;21.52;;;25.50;99.90;;;;;;5873756;23;20048;-93
2022/09/07 18:33:41;;;;;;;25.73;21.45;;;25.30;99.90;;;;;;4889685;29;20051;-92
2022/09/07 18:36:26;;;;;;;23.67;21.17;;;25.20;99.90;;;;;;4892852;29;20088;-92
2022/09/07 18:39:13;;;;;;;22.00;19.80;;;25.10;99.90;;;;;;4891119;29;20036;-92
2022/09/07 18:48:12;;;;;;;22.05;19.77;;;24.80;99.90;;;;;;757886;23;20351;-92
2022/09/07 18:51:07;;;;;;;22.70;19.02;;;24.70;99.90;;;;;;4869342;29;20049;-94
2022/09/07 18:53:37;;;;;;;22.02;19.48;;;24.70;99.90;;;;;;4855554;29;20038;-91
2022/09/07 18:56:30;;;;;;;28.42;24.05;;;24.70;99.90;;;;;;4858571;29;20061;-92
2022/09/07 19:10:33;;;;;;;29.42;20.45;;;24.20;99.90;;;;;;4898767;23;20037;-92
2022/09/07 19:57:28;;;;;;;;;;;;;;;;;;;;;
2022/09/07 20:00:27;;;;;;;29.75;22.30;;;23.40;99.90;;;;;;4900473;29;20510;-92
2022/09/07 20:02:56;;;;;;;30.83;23.05;;;23.30;99.90;;;;;;4882097;29;20037;-93
2022/09/07 20:05:28;;;;;;;28.73;21.52;;;23.20;99.90;;;;;;4864868;29;20047;-93
2022/09/07 20:07:54;;;;;;;31.45;21.52;;;23.20;99.90;;;;;;4865020;29;20062;-93
2022/09/07 20:10:24;;;;;;;29.83;21.55;;;23.20;99.90;;;;;;4864628;29;20055;-92
2022/09/07 20:12:51;;;;;;;30.77;20.77;;;23.20;99.90;;;;;;4864210;29;20033;-92
2022/09/07 20:15:23;;;;;;;28.58;20.48;;;23.20;99.90;;;;;;4865767;29;20033;-93
2022/09/07 20:18:04;;;;;;;29.70;20.80;;;23.10;99.90;;;;;;4882138;29;20129;-92
2022/09/07 20:20:59;;;;;;;29.95;21.45;;;23.00;99.90;;;;;;4861261;29;20105;-92
2022/09/07 20:23:36;;;;;;;30.02;21.30;;;22.90;99.90;;;;;;4860882;29;20052;-92
2022/09/07 20:26:16;;;;;;;31.65;21.02;;;22.80;99.90;;;;;;4860890;29;20045;-94
2022/09/07 20:29:04;;;;;;;29.70;20.48;;;22.80;99.90;;;;;;4861980;29;20037;-92
2022/09/07 20:31:30;;;;;;;;;;;22.70;99.90;;;;;;4862734;29;20376;-92
2022/09/07 20:33:57;;;;;;;33.22;18.80;;;22.70;99.90;;;;;;4848201;29;19912;-91
2022/09/07 20:36:24;;;;;;;32.85;20.80;;;22.70;99.90;;;;;;4860274;29;20506;-91
2022/09/07 20:38:53;;;;;;;39.60;25.45;;;22.70;99.90;;;;;;4860166;29;20045;-93
2022/09/07 20:41:28;;;;;;;30.75;20.98;;;22.60;99.90;;;;;;4862415;29;20588;-92
2022/09/07 20:43:57;;;;;;;32.00;20.58;;;22.60;99.90;;;;;;4871135;29;20048;-92
2022/09/07 20:46:27;;;;;;;30.45;21.00;;;22.50;99.90;;;;;;4848145;29;20033;-92
2022/09/07 20:48:54;;;;;;;29.33;21.90;;;22.50;99.90;;;;;;4860085;29;20045;-90
2022/09/07 20:51:22;;;;;;;29.92;20.80;;;22.40;99.90;;;;;;4860414;29;20038;-91
2022/09/07 20:53:50;;;;;;;35.60;21.83;;;22.40;99.90;;;;;;4860055;29;20438;-93
2022/09/07 20:56:20;;;;;;;31.70;22.65;;;22.40;99.90;;;;;;4863475;29;20551;-93
2022/09/07 20:58:48;;;;;;;35.15;23.08;;;22.30;99.90;;;;;;4865012;29;20048;-93
2022/09/07 21:01:17;;;;;;;33.65;21.08;;;22.30;99.90;;;;;;4850806;29;20048;-92
2022/09/07 21:03:50;;;;;;;34.38;23.05;;;22.30;99.90;;;;;;4865242;29;20403;-91
2022/09/07 21:06:18;;;;;;;33.08;21.25;;;22.20;99.90;;;;;;4866494;29;20065;-92
2022/09/07 21:08:47;;;;;;;33.13;22.52;;;22.20;99.90;;;;;;4866322;29;20101;-93
2022/09/07 21:11:23;;;;;;;37.75;22.95;;;22.20;99.90;;;;;;4863652;29;20116;-92
2022/09/07 21:13:59;;;;;;;33.53;22.23;;;22.10;99.90;;;;;;4863994;29;20124;-92
2022/09/07 21:16:27;;;;;;;35.65;24.17;;;22.10;99.90;;;;;;4865254;29;20471;-91
2022/09/07 21:18:57;;;;;;;34.45;23.60;;;22.20;99.90;;;;;;4873399;29;20037;-92
2022/09/07 21:21:26;;;;;;;39.33;24.25;;;22.10;99.90;;;;;;4879171;29;20037;-92
2022/09/07 21:23:59;;;;;;;29.33;21.83;;;22.10;99.90;;;;;;4871148;29;20121;-94
2022/09/07 21:26:27;;;;;;;34.95;21.33;;;22.00;99.90;;;;;;4868354;29;20037;-92
2022/09/07 21:29:20;;;;;;;29.83;20.63;;;22.00;99.90;;;;;;4866733;29;20032;-92
2022/09/07 21:31:47;;;;;;;33.78;23.27;;;22.10;99.90;;;;;;4866707;29;20057;-92
2022/09/07 21:34:14;;;;;;;36.60;23.10;;;22.10;99.90;;;;;;4863157;29;20498;-93
2022/09/07 21:37:27;;;;;;;36.83;25.02;;;22.00;99.90;;;;;;4866470;29;20136;-93
2022/09/07 21:44:26;;;;;;;;;;;;;;;;;;;;;
2022/09/07 21:48:21;;;;;;;36.38;22.50;;;21.80;99.90;;;;;;4788591;30;20040;-92
2022/09/07 21:52:04;;;;;;;;;;;;;;;;;;;;;
2022/09/07 21:55:43;;;;;;;32.67;22.00;;;21.60;99.90;;;;;;4675326;30;20084;-93
2022/09/07 22:16:49;;;;;;;39.90;23.40;;;21.40;99.90;;;;;;5646174;23;20121;-94
